Terminal Aerodrome Forecast
Issued by NWS Boston, MA

Home | Current Version | Previous Version | Text Only | Print | Product List | Glossary On
Versions: 1 2 3 4 5 6 7 8 9 10 11 12 13 14 15 16 17 18 19 20
000
FTUS41 KBOX 241732
TAFORH
TAF
KORH 241732Z 2418/2518 32012KT P6SM BKN015
     FM242000 32012KT P6SM OVC030
     FM250100 31007KT P6SM BKN040
     FM250600 30007KT P6SM SCT100=

USA.gov is the U.S. government's official web portal to all federal, state and local government web resources and services.